.
WxDataArchive / Data Records for 2008-05-31
2008-05-30 May 2008 2008-06-01

Data Records for Saturday, 31 May 2008

Time	Temp	Chill	HIndex	Humid	Dewpt	 Wind 	HiWind	WindDir	Rain 	Barom 
-----	----	-----	------	-----	-----	------	------	-------	-----	----- 
00:00	63.1	63.1	63.1	96	61.9	2	5	292	0.04	29.669 
00:05	63.2	63.2	63.2	96	62.0	1	3	270	0.01	29.669 
00:10	63.4	63.4	63.4	97	62.5	1	4	248	0.02	29.669 
00:15	63.4	63.4	63.4	97	62.5	0	3	248	0.00	29.659 
00:20	63.5	63.5	63.5	97	62.6	0	2	248	0.01	29.659 
00:25	63.5	63.5	63.5	97	62.6	1	4	248	0.00	29.659 
00:30	63.5	63.5	63.5	97	62.6	1	3	225	0.00	29.672 
00:35	63.5	63.5	63.5	97	62.6	1	3	248	0.00	29.672 
00:40	63.7	63.7	63.7	97	62.8	0	2	248	0.00	29.672 
00:45	63.7	63.7	63.7	97	62.8	1	5	248	0.00	29.662 
00:50	63.7	63.7	63.7	97	62.8	1	4	248	0.01	29.662 
00:55	63.9	63.9	63.9	97	63.0	1	4	270	0.00	29.662 
01:00	63.9	63.9	63.9	97	63.0	0	2	270	0.00	29.657 
01:05	64.0	64.0	64.0	97	63.1	0	1	270	0.00	29.657 
01:10	64.0	64.0	64.0	97	63.1	1	2	270	0.00	29.657 
01:15	64.0	64.0	64.0	97	63.1	1	4	248	0.00	29.660 
01:20	64.0	64.0	64.0	97	63.1	0	2	248	0.00	29.660 
01:25	64.0	64.0	64.0	97	63.1	0	2	248	0.00	29.660 
01:30	63.9	63.9	63.9	97	63.0	0	1	248	0.00	29.667 
01:35	63.9	63.9	63.9	97	63.0	0	2	248	0.00	29.667 
01:40	63.9	63.9	63.9	97	63.0	0	3	225	0.00	29.667 
01:45	63.9	63.9	63.9	97	63.0	0	2	225	0.00	29.658 
01:50	63.7	63.7	63.7	97	62.8	1	3	225	0.00	29.658 
01:55	63.7	63.7	63.7	97	62.8	1	3	225	0.00	29.658 
02:00	63.7	63.7	63.7	97	62.8	1	3	248	0.00	29.651 
02:05	63.7	63.7	63.7	97	62.8	1	3	248	0.00	29.651 
02:10	63.9	63.9	63.9	97	63.0	1	4	225	0.00	29.651 
02:15	63.9	63.9	63.9	97	63.0	1	3	248	0.00	29.644 
02:20	63.9	63.9	63.9	97	63.0	1	3	248	0.00	29.644 
02:25	63.9	63.9	63.9	97	63.0	1	3	248	0.00	29.644 
02:30	64.0	64.0	64.0	97	63.1	1	3	248	0.00	29.654 
02:35	64.0	64.0	64.0	97	63.1	1	3	248	0.00	29.654 
02:40	64.2	64.2	64.2	97	63.3	1	3	248	0.00	29.654 
02:45	64.2	64.2	64.2	97	63.3	1	2	248	0.00	29.661 
02:50	64.2	64.2	64.2	97	63.3	1	4	248	0.00	29.661 
02:55	64.3	64.3	64.3	97	63.4	1	3	248	0.00	29.661 
03:00	64.5	64.5	64.5	97	63.6	2	4	270	0.00	29.664 
03:05	64.8	64.8	64.8	97	63.9	1	4	248	0.00	29.664 
03:10	65.2	65.2	65.2	97	64.3	2	6	248	0.00	29.664 
03:15	65.5	65.5	65.5	97	64.6	2	5	248	0.00	29.663 
03:20	65.8	65.8	65.8	97	64.9	2	5	270	0.00	29.663 
03:25	66.0	66.0	66.0	97	65.1	2	4	270	0.00	29.663 
03:30	66.1	66.1	66.1	97	65.2	1	5	248	0.00	29.664 
03:35	66.3	66.3	66.3	97	65.4	1	3	248	0.00	29.664 
03:40	66.3	66.3	66.3	97	65.4	1	3	248	0.00	29.664 
03:45	66.4	66.4	66.4	97	65.5	1	3	248	0.00	29.665 
03:50	66.4	66.4	66.4	97	65.5	1	3	248	0.00	29.665 
03:55	66.6	66.6	66.6	97	65.7	1	3	270	0.00	29.665 
04:00	66.6	66.6	66.6	97	65.7	2	4	270	0.00	29.668 
04:05	66.6	66.6	66.6	97	65.7	1	5	270	0.00	29.668 
04:10	66.6	66.6	66.6	97	65.7	1	3	248	0.00	29.668 
04:15	66.6	66.6	66.6	97	65.7	2	4	248	0.00	29.676 
04:20	66.4	66.4	66.4	97	65.5	1	3	248	0.00	29.676 
04:25	66.4	66.4	66.4	97	65.5	1	3	248	0.00	29.676 
04:30	66.4	66.4	66.4	97	65.5	1	4	248	0.00	29.675 
04:35	66.3	66.3	66.3	97	65.4	1	2	248	0.00	29.675 
04:40	66.1	66.1	66.1	97	65.2	1	2	248	0.00	29.675 
04:45	66.1	66.1	66.1	97	65.2	1	2	248	0.00	29.676 
04:50	66.0	66.0	66.0	97	65.1	1	3	248	0.00	29.676 
04:55	66.0	66.0	66.0	97	65.1	1	3	248	0.00	29.676 
05:00	66.0	66.0	66.0	97	65.1	1	5	225	0.00	29.672 
05:05	65.8	65.8	65.8	97	64.9	0	2	225	0.00	29.672 
05:10	65.8	65.8	65.8	97	64.9	1	3	225	0.00	29.672 
05:15	65.6	65.6	65.6	97	64.7	0	1	225	0.00	29.678 
05:20	65.6	65.6	65.6	97	64.7	0	2	248	0.00	29.678 
05:25	65.6	65.6	65.6	97	64.7	0	2	248	0.00	29.678 
05:30	65.6	65.6	65.6	97	64.7	1	2	225	0.00	29.682 
05:35	65.5	65.5	65.5	97	64.6	0	1	225	0.00	29.682 
05:40	65.5	65.5	65.5	97	64.6	1	2	225	0.00	29.682 
05:45	65.5	65.5	65.5	97	64.6	1	2	225	0.00	29.683 
05:50	65.6	65.6	65.6	97	64.7	1	2	225	0.00	29.683 
05:55	65.8	65.8	65.8	97	64.9	1	3	270	0.00	29.683 
06:00	65.8	65.8	65.8	97	64.9	1	3	248	0.00	29.686 
06:05	65.8	65.8	65.8	97	64.9	1	2	248	0.00	29.686 
06:10	65.8	65.8	65.8	97	64.9	1	4	248	0.00	29.686 
06:15	65.8	65.8	65.8	97	64.9	0	2	248	0.00	29.690 
06:20	65.8	65.8	65.8	97	64.9	1	2	248	0.00	29.690 
06:25	65.8	65.8	65.8	97	64.9	0	3	248	0.00	29.690 
06:30	66.0	66.0	66.0	97	65.1	1	2	248	0.00	29.692 
06:35	66.1	66.1	66.1	96	64.9	1	3	248	0.00	29.692 
06:40	66.3	66.3	66.3	96	65.1	1	4	248	0.00	29.692 
06:45	66.4	66.4	66.4	96	65.2	1	3	248	0.00	29.698 
06:50	66.4	66.4	66.4	96	65.2	1	3	248	0.00	29.698 
06:55	66.6	66.6	66.6	96	65.4	1	5	248	0.00	29.698 
07:00	66.6	66.6	66.6	96	65.4	2	5	248	0.00	29.700 
07:05	66.8	66.8	66.8	96	65.6	2	6	248	0.00	29.700 
07:10	66.9	66.9	66.9	96	65.7	1	3	248	0.00	29.700 
07:15	67.1	67.1	67.1	96	65.9	1	4	248	0.00	29.701 
07:20	67.3	67.3	67.3	95	65.8	2	5	248	0.00	29.701 
07:25	67.8	67.8	67.8	95	66.3	1	4	270	0.00	29.701 
07:30	67.9	67.9	67.9	94	66.1	1	4	270	0.00	29.704 
07:35	68.1	68.1	68.1	94	66.3	2	6	248	0.00	29.704 
07:40	68.1	68.1	68.1	92	65.7	3	9	270	0.00	29.704 
07:45	68.1	68.1	68.1	92	65.7	3	5	248	0.00	29.715 
07:50	68.4	68.4	68.4	92	66.0	2	5	248	0.00	29.715 
07:55	68.6	68.6	68.6	91	65.9	2	6	270	0.00	29.715 
08:00	68.9	68.9	68.9	90	65.8	2	5	248	0.00	29.715 
08:05	68.9	68.9	68.9	89	65.5	2	3	270	0.00	29.715 
08:10	69.1	69.1	69.1	88	65.4	2	6	248	0.00	29.715 
08:15	69.1	69.1	69.1	88	65.4	2	6	248	0.00	29.718 
08:20	69.3	69.3	69.3	87	65.3	3	7	248	0.00	29.718 
08:25	69.6	69.6	69.6	87	65.6	2	4	248	0.00	29.718 
08:30	69.4	69.4	69.4	86	65.0	2	4	248	0.00	29.718 
08:35	69.6	69.6	69.6	86	65.2	1	5	248	0.00	29.718 
08:40	70.1	70.1	70.1	86	65.7	2	4	248	0.00	29.718 
08:45	70.6	70.6	70.6	85	65.9	1	4	248	0.00	29.707 
08:50	71.1	71.1	71.1	83	65.7	2	11	248	0.00	29.707 
08:55	71.3	71.3	71.3	83	65.9	2	5	248	0.00	29.707 
09:00	71.8	71.8	71.8	81	65.6	3	5	248	0.00	29.709 
09:05	72.3	72.3	72.3	81	66.1	2	6	225	0.00	29.709 
09:10	72.0	72.0	72.0	80	65.5	2	5	248	0.00	29.709 
09:15	71.8	71.8	71.8	82	66.0	2	6	248	0.00	29.715 
09:20	72.3	72.3	72.3	80	65.8	3	7	248	0.00	29.715 
09:25	73.0	73.0	73.0	78	65.7	2	6	248	0.00	29.715 
09:30	73.0	73.0	73.0	77	65.3	3	9	248	0.00	29.707 
09:35	73.2	73.2	73.2	77	65.5	3	6	248	0.00	29.707 
09:40	73.2	73.2	73.2	75	64.8	3	5	248	0.00	29.707 
09:45	73.5	73.5	73.5	77	65.8	2	6	248	0.00	29.708 
09:50	73.9	73.9	73.9	76	65.8	3	10	248	0.00	29.708 
09:55	74.2	74.2	74.2	74	65.4	3	7	270	0.00	29.708 
10:00	74.2	74.2	74.2	73	65.0	2	5	270	0.00	29.713 
10:05	74.2	74.2	74.2	75	65.8	2	6	270	0.00	29.713 
10:10	74.6	74.6	74.6	73	65.4	3	7	248	0.00	29.713 
10:15	74.6	74.6	74.6	72	65.0	3	6	248	0.00	29.716 
10:20	74.6	74.6	74.6	73	65.4	3	10	270	0.00	29.716 
10:25	74.2	74.2	74.2	72	64.6	3	8	248	0.00	29.716 
10:30	74.4	74.4	74.4	70	64.0	4	10	270	0.00	29.719 
10:35	74.2	74.2	74.2	72	64.6	3	6	270	0.00	29.719 
10:40	74.4	74.4	74.4	73	65.2	3	9	248	0.00	29.719 
10:45	74.7	74.7	74.7	69	63.8	3	10	270	0.00	29.721 
10:50	75.1	75.1	76.9	68	63.8	3	6	270	0.00	29.721 
10:55	75.1	75.1	76.9	68	63.8	3	7	248	0.00	29.721 
11:00	75.4	75.4	77.3	66	63.2	3	7	270	0.00	29.721 
11:05	76.0	76.0	77.9	64	62.9	3	8	270	0.00	29.721 
11:10	76.0	76.0	77.9	64	62.9	4	7	270	0.00	29.719 
11:15	76.7	76.7	78.5	67	64.9	3	7	248	0.00	29.717 
11:20	76.8	76.8	78.6	63	63.2	3	6	270	0.00	29.718 
11:25	77.4	77.4	79.2	62	63.3	3	9	248	0.00	29.719 
11:30	76.7	76.7	78.5	60	61.7	4	10	270	0.00	29.719 
11:35	77.0	77.0	78.8	58	61.1	4	10	270	0.00	29.720 
11:40	76.8	76.8	78.6	57	60.4	4	11	270	0.00	29.718 
11:45	76.5	76.5	78.4	57	60.1	5	10	270	0.00	29.718 
11:50	76.7	76.7	78.5	56	59.8	4	10	270	0.00	29.718 
11:55	76.0	76.0	78.1	56	59.2	4	11	270	0.00	29.718 
12:00	76.1	76.1	78.1	57	59.7	4	9	270	0.00	29.719 
12:05	76.1	76.1	78.1	56	59.2	5	11	270	0.00	29.719 
12:10	76.1	76.1	78.1	55	58.7	4	9	270	0.00	29.720 
12:15	75.8	75.8	78.0	55	58.5	3	7	292	0.00	29.720 
12:20	76.5	76.5	78.4	57	60.1	3	10	248	0.00	29.723 
12:25	77.2	77.2	78.8	54	59.2	4	10	270	0.00	29.724 
12:30	77.4	77.4	79.0	55	59.9	4	7	270	0.00	29.725 
12:35	77.6	77.6	79.1	53	59.1	4	10	270	0.00	29.728 
12:40	78.1	78.1	79.3	50	57.9	5	10	270	0.00	29.728 
12:45	78.3	78.3	79.4	50	58.1	4	7	270	0.00	29.731 
12:50	77.9	77.9	79.2	50	57.7	4	11	270	0.00	29.728 
12:55	78.3	78.3	79.4	49	57.5	4	7	270	0.00	29.725 
13:00	78.8	78.8	79.8	50	58.6	3	8	270	0.00	29.729 
13:05	79.0	79.0	79.8	48	57.6	4	9	270	0.00	29.724 
13:10	78.3	78.3	79.3	48	57.0	4	9	270	0.00	29.725 
13:15	78.6	78.6	79.5	47	56.7	3	9	270	0.00	29.726 
13:20	79.4	79.4	80.1	48	58.0	3	7	270	0.00	29.728 
13:25	79.4	79.4	80.1	47	57.4	3	6	270	0.00	29.727 
13:30	79.2	79.2	79.8	46	56.6	4	10	270	0.00	29.727 
13:35	79.6	79.6	80.1	46	57.0	4	9	292	0.00	29.727 
13:40	79.4	79.4	80.1	47	57.4	4	9	248	0.00	29.725 
13:45	78.3	78.3	79.4	50	58.1	4	6	270	0.00	29.729 
13:50	78.3	78.3	79.6	53	59.7	2	7	315	0.00	29.732 
13:55	78.6	78.6	79.9	54	60.5	3	5	270	0.00	29.731 
14:00	78.8	78.8	79.7	48	57.4	5	9	270	0.00	29.735 
14:05	78.3	78.3	79.4	49	57.5	4	9	270	0.00	29.733 
14:10	78.8	78.8	79.8	50	58.6	4	9	270	0.00	29.732 
14:15	78.5	78.5	79.4	47	56.6	4	9	292	0.00	29.734 
14:20	78.8	78.8	79.7	48	57.4	4	9	270	0.00	29.737 
14:25	78.5	78.5	79.5	48	57.2	4	7	292	0.00	29.738 
14:30	77.9	77.9	79.1	48	56.6	3	6	315	0.00	29.738 
14:35	77.9	77.9	79.2	50	57.7	2	5	270	0.00	29.736 
14:40	78.6	78.6	79.5	47	56.7	4	6	270	0.00	29.743 
14:45	78.8	78.8	79.7	48	57.4	2	6	270	0.00	29.738 
14:50	78.1	78.1	79.2	47	56.2	2	5	315	0.00	29.741 
14:55	78.8	78.8	79.6	46	56.2	2	5	270	0.00	29.738 
15:00	78.6	78.6	79.4	46	56.1	2	5	315	0.00	29.733 
15:05	77.9	77.9	79.1	49	57.2	2	5	315	0.00	29.733 
15:10	78.5	78.5	79.4	46	56.0	2	5	292	0.00	29.730 
15:15	77.7	77.7	79.0	49	57.0	1	5	338	0.00	29.733 
15:20	77.2	77.2	78.7	48	56.0	2	4	270	0.00	29.734 
15:25	76.5	76.5	78.3	48	55.3	2	5	315	0.00	29.735 
15:30	76.3	76.3	78.2	50	56.3	2	4	315	0.00	29.734 
15:35	76.8	76.8	78.5	50	56.7	2	5	248	0.00	29.731 
15:40	77.7	77.7	79.1	52	58.6	2	4	270	0.00	29.731 
15:45	78.3	78.3	79.4	49	57.5	2	5	270	0.00	29.730 
15:50	78.3	78.3	79.4	50	58.1	3	5	270	0.00	29.731 
15:55	78.8	78.8	79.6	47	56.8	3	5	248	0.00	29.729 
16:00	79.2	79.2	80.1	49	58.4	3	5	270	0.00	29.729 
16:05	79.2	79.2	79.8	45	56.0	3	9	270	0.00	29.729 
16:10	78.3	78.3	79.3	47	56.4	3	6	270	0.00	29.730 
16:15	78.5	78.5	79.5	49	57.7	3	9	270	0.00	29.730 
16:20	78.6	78.6	79.5	47	56.7	2	5	270	0.00	29.730 
16:25	78.8	78.8	79.6	46	56.2	2	5	315	0.00	29.731 
16:30	78.8	78.8	79.6	47	56.8	2	5	248	0.00	29.731 
16:35	79.6	79.6	80.0	45	56.4	3	7	270	0.00	29.732 
16:40	79.0	79.0	79.6	44	55.2	4	7	270	0.00	29.733 
16:45	79.0	79.0	79.6	44	55.2	4	7	270	0.00	29.733 
16:50	79.2	79.2	79.6	43	54.7	4	10	270	0.00	29.732 
16:55	78.6	78.6	79.2	43	54.2	4	11	270	0.00	29.732 
17:00	78.3	78.3	79.1	44	54.6	3	6	270	0.00	29.731 
17:05	78.1	78.1	79.0	44	54.4	4	10	270	0.00	29.730 
17:10	78.3	78.3	79.1	44	54.6	3	7	248	0.00	29.731 
17:15	78.3	78.3	79.1	43	53.9	3	6	270	0.00	29.732 
17:20	77.7	77.7	78.8	44	54.0	4	10	292	0.00	29.732 
17:25	77.2	77.2	78.5	45	54.2	3	9	248	0.00	29.734 
17:30	76.8	76.8	78.4	46	54.4	2	6	270	0.00	29.735 
17:35	77.0	77.0	78.4	44	53.4	4	7	270	0.00	29.737 
17:40	76.7	76.7	78.3	45	53.7	3	10	292	0.00	29.738 
17:45	76.7	76.7	78.3	46	54.3	2	5	248	0.00	29.740 
17:50	76.7	76.7	78.3	46	54.3	3	5	270	0.00	29.739 
17:55	76.5	76.5	78.3	48	55.3	3	6	270	0.00	29.740 
18:00	76.7	76.7	78.4	47	54.9	2	6	270	0.00	29.738 
18:05	76.5	76.5	78.3	47	54.7	2	5	270	0.00	29.736 
18:10	76.1	76.1	78.1	49	55.5	2	4	270	0.00	29.741 
18:15	75.8	75.8	78.0	49	55.3	2	6	270	0.00	29.743 
18:20	76.0	76.0	78.1	49	55.4	2	5	270	0.00	29.737 
18:25	76.1	76.1	78.1	50	56.1	2	5	270	0.00	29.738 
18:30	76.0	76.0	78.1	50	56.0	2	4	248	0.00	29.740 
18:35	75.6	75.6	77.9	51	56.2	2	6	270	0.00	29.742 
18:40	75.3	75.3	77.7	51	55.9	2	4	292	0.00	29.746 
18:45	75.3	75.3	77.7	52	56.4	1	5	292	0.00	29.747 
18:50	75.1	75.1	77.6	53	56.8	1	4	315	0.00	29.745 
18:55	74.9	74.9	74.9	52	56.1	2	4	270	0.00	29.747 
19:00	74.7	74.7	74.7	53	56.4	1	4	270	0.00	29.747 
19:05	74.7	74.7	74.7	53	56.4	1	4	248	0.00	29.746 
19:10	74.9	74.9	74.9	53	56.6	1	3	270	0.00	29.746 
19:15	74.9	74.9	74.9	53	56.6	1	4	315	0.00	29.746 
19:20	74.7	74.7	74.7	54	56.9	1	3	270	0.00	29.746 
19:25	74.6	74.6	74.6	55	57.3	1	3	270	0.00	29.746 
19:30	74.2	74.2	74.2	55	57.0	1	2	270	0.00	29.748 
19:35	73.9	73.9	73.9	56	57.2	0	1	248	0.00	29.747 
19:40	73.7	73.7	73.7	56	57.0	1	3	248	0.00	29.747 
19:45	73.5	73.5	73.5	56	56.8	1	2	248	0.00	29.748 
19:50	73.3	73.3	73.3	56	56.6	1	2	315	0.00	29.748 
19:55	73.2	73.2	73.2	56	56.5	1	3	248	0.00	29.747 
20:00	73.0	73.0	73.0	57	56.9	1	2	248	0.00	29.747 
20:05	72.8	72.8	72.8	58	57.1	0	2	270	0.00	29.745 
20:10	72.5	72.5	72.5	58	56.9	0	1	270	0.00	29.746 
20:15	72.1	72.1	72.1	59	57.0	0	1	270	0.00	29.747 
20:20	71.8	71.8	71.8	60	57.2	0	1	270	0.00	29.749 
20:25	71.5	71.5	71.5	60	56.9	0	1	270	0.00	29.751 
20:30	71.1	71.1	71.1	61	57.0	0	0	---	0.00	29.760 
20:35	70.8	70.8	70.8	62	57.1	0	0	---	0.00	29.763 
20:40	70.4	70.4	70.4	63	57.2	0	0	---	0.00	29.762 
20:45	69.9	69.9	69.9	64	57.2	0	0	---	0.00	29.766 
20:50	69.6	69.6	69.6	65	57.3	0	0	---	0.00	29.768 
20:55	69.3	69.3	69.3	65	57.0	0	0	---	0.00	29.771 
21:00	68.9	68.9	68.9	66	57.1	0	0	---	0.00	29.774 
21:05	68.8	68.8	68.8	66	57.0	0	0	---	0.00	29.777 
21:10	68.4	68.4	68.4	67	57.0	0	0	---	0.00	29.779 
21:15	68.3	68.3	68.3	68	57.3	0	0	---	0.00	29.781 
21:20	67.9	67.9	67.9	69	57.3	0	0	---	0.00	29.781 
21:25	67.6	67.6	67.6	69	57.1	0	0	---	0.00	29.782 
21:30	67.3	67.3	67.3	70	57.2	0	0	---	0.00	29.786 
21:35	66.9	66.9	66.9	71	57.2	0	0	---	0.00	29.789 
21:40	66.6	66.6	66.6	72	57.3	0	0	---	0.00	29.792 
21:45	66.3	66.3	66.3	73	57.4	0	0	---	0.00	29.795 
21:50	66.0	66.0	66.0	75	57.8	0	0	---	0.00	29.796 
21:55	65.6	65.6	65.6	76	57.8	0	0	---	0.00	29.797 
22:00	65.5	65.5	65.5	76	57.7	0	0	---	0.00	29.797 
22:05	65.5	65.5	65.5	77	58.1	0	0	---	0.00	29.797 
22:10	65.5	65.5	65.5	77	58.1	0	0	---	0.00	29.796 
22:15	65.3	65.3	65.3	77	57.9	0	0	---	0.00	29.796 
22:20	65.3	65.3	65.3	78	58.3	0	0	---	0.00	29.796 
22:25	65.3	65.3	65.3	78	58.3	0	1	270	0.00	29.795 
22:30	65.3	65.3	65.3	78	58.3	0	0	---	0.00	29.796 
22:35	65.2	65.2	65.2	78	58.2	0	0	---	0.00	29.797 
22:40	65.2	65.2	65.2	78	58.2	0	0	---	0.00	29.797 
22:45	65.2	65.2	65.2	78	58.2	0	0	---	0.00	29.797 
22:50	65.3	65.3	65.3	78	58.3	0	0	---	0.00	29.797 
22:55	65.3	65.3	65.3	78	58.3	0	1	270	0.00	29.794 
23:00	65.3	65.3	65.3	78	58.3	0	0	---	0.00	29.793 
23:05	65.5	65.5	65.5	77	58.1	0	1	270	0.00	29.793 
23:10	65.5	65.5	65.5	77	58.1	0	0	---	0.00	29.795 
23:15	65.6	65.6	65.6	77	58.2	0	1	270	0.00	29.795 
23:20	65.8	65.8	65.8	76	58.0	0	1	270	0.00	29.795 
23:25	65.8	65.8	65.8	76	58.0	0	0	---	0.00	29.793 
23:30	65.8	65.8	65.8	76	58.0	0	0	---	0.00	29.791 
23:35	65.6	65.6	65.6	76	57.8	0	1	270	0.00	29.793 
23:40	65.5	65.5	65.5	76	57.7	0	0	---	0.00	29.793 
23:45	65.3	65.3	65.3	76	57.5	0	0	---	0.00	29.795 
23:50	65.2	65.2	65.2	77	57.8	0	0	---	0.00	29.796 
23:55	65.0	65.0	65.0	77	57.6	0	0	---	0.00	29.796 

CoCoRaHS
IN-AL-39
A2 Web Hosting
Creative Commons License
GoDaddy
Look for:

loaded 2017-12-13 19:47:33 • last modified 2010-11-18 10:43:29
Privacy PolicyDisclaimer
• wx.awcolley.com is powered by PmWiki v.2002016 •
• all content (unless otherwise noted) © 2017 A W Colley